sensor_id;sensor_type;location;lat;lon;timestamp;pressure;altitude;pressure_sealevel;temperature;humidity
550;BME280;20066;48.764;9.176;2023-09-30T00:02:21;99034.63;;;19.91;59.60
550;BME280;20066;48.764;9.176;2023-09-30T00:04:49;99036.78;;;20.16;59.01
550;BME280;20066;48.764;9.176;2023-09-30T00:07:17;99037.69;;;20.58;57.64
550;BME280;20066;48.764;9.176;2023-09-30T00:09:45;99032.59;;;20.12;59.02
550;BME280;20066;48.764;9.176;2023-09-30T00:12:13;99026.31;;;20.76;57.03
550;BME280;20066;48.764;9.176;2023-09-30T00:14:41;99024.19;;;20.67;57.28
550;BME280;20066;48.764;9.176;2023-09-30T00:17:09;99024.50;;;19.36;61.55
550;BME280;20066;48.764;9.176;2023-09-30T00:19:39;99012.50;;;19.70;60.57
550;BME280;20066;48.764;9.176;2023-09-30T00:22:07;99025.41;;;19.30;61.85
550;BME280;20066;48.764;9.176;2023-09-30T00:24:35;99019.25;;;20.30;58.99
550;BME280;20066;48.764;9.176;2023-09-30T00:27:03;99021.22;;;20.62;57.55
550;BME280;20066;48.764;9.176;2023-09-30T00:29:31;99027.97;;;20.57;58.15
550;BME280;20066;48.764;9.176;2023-09-30T00:32:00;99017.88;;;20.99;56.80
550;BME280;20066;48.764;9.176;2023-09-30T00:34:27;99024.09;;;21.00;56.32
550;BME280;20066;48.764;9.176;2023-09-30T00:36:58;99037.84;;;20.84;56.87
550;BME280;20066;48.764;9.176;2023-09-30T00:39:26;99031.91;;;21.14;56.38
550;BME280;20066;48.764;9.176;2023-09-30T00:41:57;99032.06;;;20.49;57.63
550;BME280;20066;48.764;9.176;2023-09-30T00:44:26;99042.13;;;20.68;57.37
550;BME280;20066;48.764;9.176;2023-09-30T00:46:54;99033.09;;;21.00;56.65
550;BME280;20066;48.764;9.176;2023-09-30T00:49:24;99035.25;;;20.93;57.00
550;BME280;20066;48.764;9.176;2023-09-30T00:51:53;99039.56;;;21.06;56.27
550;BME280;20066;48.764;9.176;2023-09-30T00:54:25;99050.94;;;20.44;58.16
550;BME280;20066;48.764;9.176;2023-09-30T00:56:55;99035.13;;;20.35;59.50
550;BME280;20066;48.764;9.176;2023-09-30T00:59:25;99035.66;;;19.42;63.56
550;BME280;20066;48.764;9.176;2023-09-30T01:01:54;99040.84;;;19.36;64.18
550;BME280;20066;48.764;9.176;2023-09-30T01:04:27;99036.69;;;19.32;64.36
550;BME280;20066;48.764;9.176;2023-09-30T01:06:56;99035.13;;;20.02;62.06
550;BME280;20066;48.764;9.176;2023-09-30T01:09:27;99046.53;;;19.45;64.56
550;BME280;20066;48.764;9.176;2023-09-30T01:11:55;99047.78;;;19.41;64.56
550;BME280;20066;48.764;9.176;2023-09-30T01:14:24;99040.41;;;19.57;64.65
550;BME280;20066;48.764;9.176;2023-09-30T01:16:53;99042.31;;;19.41;64.56
550;BME280;20066;48.764;9.176;2023-09-30T01:19:22;99052.59;;;19.33;64.60
550;BME280;20066;48.764;9.176;2023-09-30T01:21:53;99050.97;;;19.75;62.43
550;BME280;20066;48.764;9.176;2023-09-30T01:24:25;99044.22;;;19.80;62.22
550;BME280;20066;48.764;9.176;2023-09-30T01:26:53;99030.97;;;19.98;61.16
550;BME280;20066;48.764;9.176;2023-09-30T01:29:22;99043.78;;;19.45;62.57
550;BME280;20066;48.764;9.176;2023-09-30T01:31:57;99046.44;;;19.69;61.52
550;BME280;20066;48.764;9.176;2023-09-30T01:34:27;99039.28;;;19.75;61.55
550;BME280;20066;48.764;9.176;2023-09-30T01:36:57;99044.84;;;19.87;61.29
550;BME280;20066;48.764;9.176;2023-09-30T01:39:28;99046.50;;;20.17;60.48
550;BME280;20066;48.764;9.176;2023-09-30T01:41:57;99047.25;;;19.66;62.10
550;BME280;20066;48.764;9.176;2023-09-30T01:44:27;99040.50;;;19.90;61.28
550;BME280;20066;48.764;9.176;2023-09-30T01:46:55;99044.38;;;20.41;60.68
550;BME280;20066;48.764;9.176;2023-09-30T01:49:23;99039.91;;;19.98;61.57
550;BME280;20066;48.764;9.176;2023-09-30T01:51:53;99044.78;;;20.07;61.65
550;BME280;20066;48.764;9.176;2023-09-30T01:54:22;99031.75;;;20.47;60.89
550;BME280;20066;48.764;9.176;2023-09-30T01:56:50;99031.22;;;20.52;60.94
550;BME280;20066;48.764;9.176;2023-09-30T01:59:18;99033.03;;;20.10;61.86
550;BME280;20066;48.764;9.176;2023-09-30T02:01:48;99028.06;;;20.37;60.93
550;BME280;20066;48.764;9.176;2023-09-30T02:04:16;99027.13;;;20.12;62.25
550;BME280;20066;48.764;9.176;2023-09-30T02:06:44;99031.03;;;20.43;61.28
550;BME280;20066;48.764;9.176;2023-09-30T02:09:12;99031.13;;;20.07;61.88
550;BME280;20066;48.764;9.176;2023-09-30T02:11:42;99030.53;;;20.32;61.43
550;BME280;20066;48.764;9.176;2023-09-30T02:14:10;99030.53;;;20.64;60.50
550;BME280;20066;48.764;9.176;2023-09-30T02:16:38;99038.13;;;20.57;60.57
550;BME280;20066;48.764;9.176;2023-09-30T02:19:06;99045.06;;;20.29;61.04
550;BME280;20066;48.764;9.176;2023-09-30T02:21:37;99053.19;;;20.32;60.45
550;BME280;20066;48.764;9.176;2023-09-30T02:24:06;99050.72;;;20.54;60.19
550;BME280;20066;48.764;9.176;2023-09-30T02:26:34;99048.41;;;20.53;59.97
550;BME280;20066;48.764;9.176;2023-09-30T02:29:06;99061.97;;;20.40;60.60
550;BME280;20066;48.764;9.176;2023-09-30T02:31:36;99057.88;;;20.64;59.92
550;BME280;20066;48.764;9.176;2023-09-30T02:34:04;99056.69;;;20.49;60.22
550;BME280;20066;48.764;9.176;2023-09-30T02:36:33;99053.66;;;20.44;60.29
550;BME280;20066;48.764;9.176;2023-09-30T02:39:04;99050.09;;;20.30;60.83
550;BME280;20066;48.764;9.176;2023-09-30T02:41:36;99063.16;;;20.39;60.63
550;BME280;20066;48.764;9.176;2023-09-30T02:44:06;99066.56;;;20.11;61.75
550;BME280;20066;48.764;9.176;2023-09-30T02:46:34;99062.16;;;20.33;60.87
550;BME280;20066;48.764;9.176;2023-09-30T02:49:05;99065.66;;;19.81;62.00
550;BME280;20066;48.764;9.176;2023-09-30T02:51:33;99071.03;;;19.29;64.21
550;BME280;20066;48.764;9.176;2023-09-30T02:54:02;99068.91;;;19.76;62.10
550;BME280;20066;48.764;9.176;2023-09-30T02:56:30;99061.44;;;18.31;67.41
550;BME280;20066;48.764;9.176;2023-09-30T02:58:58;99056.69;;;18.12;68.77
550;BME280;20066;48.764;9.176;2023-09-30T03:01:28;99057.75;;;18.88;65.33
550;BME280;20066;48.764;9.176;2023-09-30T03:03:58;99060.31;;;19.18;63.51
550;BME280;20066;48.764;9.176;2023-09-30T03:06:28;99074.44;;;19.73;61.33
550;BME280;20066;48.764;9.176;2023-09-30T03:08:56;99073.25;;;19.34;62.93
550;BME280;20066;48.764;9.176;2023-09-30T03:11:24;99081.03;;;19.36;63.02
550;BME280;20066;48.764;9.176;2023-09-30T03:13:53;99098.50;;;19.58;62.61
550;BME280;20066;48.764;9.176;2023-09-30T03:16:22;99096.41;;;19.85;61.87
550;BME280;20066;48.764;9.176;2023-09-30T03:18:53;99100.47;;;19.57;62.58
550;BME280;20066;48.764;9.176;2023-09-30T03:21:22;99101.47;;;20.03;61.31
550;BME280;20066;48.764;9.176;2023-09-30T03:23:52;99098.69;;;20.39;59.99
550;BME280;20066;48.764;9.176;2023-09-30T03:26:22;99095.84;;;20.26;60.56
550;BME280;20066;48.764;9.176;2023-09-30T03:28:51;99097.97;;;20.19;60.95
550;BME280;20066;48.764;9.176;2023-09-30T03:31:20;99099.53;;;20.20;60.92
550;BME280;20066;48.764;9.176;2023-09-30T03:33:51;99093.91;;;20.43;60.14
550;BME280;20066;48.764;9.176;2023-09-30T03:36:22;99086.16;;;20.58;59.68
550;BME280;20066;48.764;9.176;2023-09-30T03:38:51;99099.16;;;20.54;59.60
550;BME280;20066;48.764;9.176;2023-09-30T03:41:20;99094.16;;;20.65;59.44
550;BME280;20066;48.764;9.176;2023-09-30T03:43:48;99081.34;;;20.13;60.44
550;BME280;20066;48.764;9.176;2023-09-30T03:46:17;99072.59;;;18.87;63.89
550;BME280;20066;48.764;9.176;2023-09-30T03:48:45;99074.72;;;18.99;64.18
550;BME280;20066;48.764;9.176;2023-09-30T03:51:14;99065.41;;;19.76;61.85
550;BME280;20066;48.764;9.176;2023-09-30T03:53:45;99064.09;;;20.16;60.33
550;BME280;20066;48.764;9.176;2023-09-30T03:56:13;99055.91;;;20.32;60.04
550;BME280;20066;48.764;9.176;2023-09-30T03:58:41;99053.44;;;19.70;60.76
550;BME280;20066;48.764;9.176;2023-09-30T04:01:11;99062.13;;;20.00;60.27
550;BME280;20066;48.764;9.176;2023-09-30T04:03:39;99064.25;;;19.93;60.25
550;BME280;20066;48.764;9.176;2023-09-30T04:06:10;99057.97;;;19.76;61.32
550;BME280;20066;48.764;9.176;2023-09-30T04:08:38;99056.69;;;19.81;60.71
550;BME280;20066;48.764;9.176;2023-09-30T04:11:08;99068.75;;;19.83;60.72
550;BME280;20066;48.764;9.176;2023-09-30T04:13:37;99078.38;;;19.32;63.07
550;BME280;20066;48.764;9.176;2023-09-30T04:16:05;99076.66;;;19.58;62.51
550;BME280;20066;48.764;9.176;2023-09-30T04:18:33;99085.16;;;19.63;62.50
550;BME280;20066;48.764;9.176;2023-09-30T04:21:00;99077.00;;;20.16;61.08
550;BME280;20066;48.764;9.176;2023-09-30T04:23:30;99063.44;;;19.56;61.50
550;BME280;20066;48.764;9.176;2023-09-30T04:25:58;99076.34;;;19.56;61.53
550;BME280;20066;48.764;9.176;2023-09-30T04:28:27;99071.09;;;20.01;60.42
550;BME280;20066;48.764;9.176;2023-09-30T04:30:55;99069.28;;;20.11;60.10
550;BME280;20066;48.764;9.176;2023-09-30T04:33:26;99065.19;;;19.67;60.42
550;BME280;20066;48.764;9.176;2023-09-30T04:35:56;99074.38;;;19.76;60.96
550;BME280;20066;48.764;9.176;2023-09-30T04:38:30;99076.88;;;19.28;62.38
550;BME280;20066;48.764;9.176;2023-09-30T04:41:29;99080.88;;;19.23;62.66
550;BME280;20066;48.764;9.176;2023-09-30T04:43:59;99096.34;;;19.30;62.21
550;BME280;20066;48.764;9.176;2023-09-30T04:46:27;99102.56;;;19.30;62.76
550;BME280;20066;48.764;9.176;2023-09-30T04:48:55;99102.28;;;19.84;60.93
550;BME280;20066;48.764;9.176;2023-09-30T04:51:23;99103.81;;;19.06;63.32
550;BME280;20066;48.764;9.176;2023-09-30T04:53:52;99106.09;;;19.70;61.17
550;BME280;20066;48.764;9.176;2023-09-30T04:56:21;99106.34;;;20.12;59.80
550;BME280;20066;48.764;9.176;2023-09-30T04:58:49;99108.84;;;19.07;63.04
550;BME280;20066;48.764;9.176;2023-09-30T05:01:19;99114.88;;;19.18;63.52
550;BME280;20066;48.764;9.176;2023-09-30T05:03:47;99115.38;;;19.73;61.40
550;BME280;20066;48.764;9.176;2023-09-30T05:06:16;99118.09;;;19.92;60.64
550;BME280;20066;48.764;9.176;2023-09-30T05:08:44;99121.72;;;20.22;59.95
550;BME280;20066;48.764;9.176;2023-09-30T05:11:13;99135.03;;;20.20;59.89
550;BME280;20066;48.764;9.176;2023-09-30T05:13:41;99128.47;;;18.99;63.27
550;BME280;20066;48.764;9.176;2023-09-30T05:16:08;99125.13;;;19.11;63.25
550;BME280;20066;48.764;9.176;2023-09-30T05:18:38;99127.41;;;18.69;64.82
550;BME280;20066;48.764;9.176;2023-09-30T05:21:06;99123.31;;;18.81;64.93
550;BME280;20066;48.764;9.176;2023-09-30T05:23:34;99133.06;;;18.32;66.11
550;BME280;20066;48.764;9.176;2023-09-30T05:26:02;99117.31;;;18.43;66.49
550;BME280;20066;48.764;9.176;2023-09-30T05:28:31;99125.38;;;18.73;65.47
550;BME280;20066;48.764;9.176;2023-09-30T05:31:01;99117.34;;;19.52;62.32
550;BME280;20066;48.764;9.176;2023-09-30T05:33:29;99117.53;;;19.81;61.49
550;BME280;20066;48.764;9.176;2023-09-30T05:35:59;99112.81;;;19.03;63.61
550;BME280;20066;48.764;9.176;2023-09-30T05:38:29;99113.94;;;19.05;64.02
550;BME280;20066;48.764;9.176;2023-09-30T05:40:58;99109.44;;;19.38;62.39
550;BME280;20066;48.764;9.176;2023-09-30T05:43:28;99114.63;;;19.33;62.74
550;BME280;20066;48.764;9.176;2023-09-30T05:45:56;99114.72;;;19.25;63.16
550;BME280;20066;48.764;9.176;2023-09-30T05:48:28;99111.19;;;19.29;63.23
550;BME280;20066;48.764;9.176;2023-09-30T05:50:56;99118.91;;;18.14;66.52
550;BME280;20066;48.764;9.176;2023-09-30T05:53:26;99126.63;;;19.15;63.99
550;BME280;20066;48.764;9.176;2023-09-30T05:55:54;99135.00;;;19.05;63.71
550;BME280;20066;48.764;9.176;2023-09-30T05:58:22;99145.53;;;19.46;62.51
550;BME280;20066;48.764;9.176;2023-09-30T06:00:50;99136.91;;;19.71;61.85
550;BME280;20066;48.764;9.176;2023-09-30T06:03:18;99149.78;;;19.70;61.96
550;BME280;20066;48.764;9.176;2023-09-30T06:05:48;99144.41;;;19.23;62.94
550;BME280;20066;48.764;9.176;2023-09-30T06:08:16;99135.59;;;19.36;63.58
550;BME280;20066;48.764;9.176;2023-09-30T06:10:45;99141.28;;;19.25;63.21
550;BME280;20066;48.764;9.176;2023-09-30T06:13:13;99137.34;;;19.66;61.90
550;BME280;20066;48.764;9.176;2023-09-30T06:15:42;99157.28;;;19.23;62.70
550;BME280;20066;48.764;9.176;2023-09-30T06:18:10;99171.09;;;18.89;64.22
550;BME280;20066;48.764;9.176;2023-09-30T06:20:41;99168.97;;;19.86;61.77
550;BME280;20066;48.764;9.176;2023-09-30T06:23:09;99169.34;;;19.45;62.84
550;BME280;20066;48.764;9.176;2023-09-30T06:25:37;99179.88;;;19.67;62.16
550;BME280;20066;48.764;9.176;2023-09-30T06:28:08;99176.66;;;19.48;61.60
550;BME280;20066;48.764;9.176;2023-09-30T06:30:36;99176.66;;;19.29;62.80
550;BME280;20066;48.764;9.176;2023-09-30T06:33:04;99179.41;;;19.05;62.93
550;BME280;20066;48.764;9.176;2023-09-30T06:35:34;99168.88;;;18.80;63.25
550;BME280;20066;48.764;9.176;2023-09-30T06:38:05;99174.66;;;19.09;62.99
550;BME280;20066;48.764;9.176;2023-09-30T06:40:34;99168.47;;;19.29;62.10
550;BME280;20066;48.764;9.176;2023-09-30T06:43:08;99176.88;;;19.38;61.78
550;BME280;20066;48.764;9.176;2023-09-30T06:45:36;99178.13;;;19.33;61.47
550;BME280;20066;48.764;9.176;2023-09-30T06:48:09;99184.22;;;19.41;61.02
550;BME280;20066;48.764;9.176;2023-09-30T06:50:43;99186.25;;;19.37;61.26
550;BME280;20066;48.764;9.176;2023-09-30T06:53:11;99194.53;;;19.53;60.52
550;BME280;20066;48.764;9.176;2023-09-30T06:55:39;99195.88;;;19.21;61.46
550;BME280;20066;48.764;9.176;2023-09-30T06:58:09;99205.97;;;20.07;59.49
550;BME280;20066;48.764;9.176;2023-09-30T07:00:37;99210.66;;;20.07;59.11
550;BME280;20066;48.764;9.176;2023-09-30T07:03:05;99207.22;;;19.63;60.50
550;BME280;20066;48.764;9.176;2023-09-30T07:05:34;99197.13;;;19.40;61.35
550;BME280;20066;48.764;9.176;2023-09-30T07:08:02;99189.44;;;19.55;60.49
550;BME280;20066;48.764;9.176;2023-09-30T07:10:30;99195.13;;;19.84;59.51
550;BME280;20066;48.764;9.176;2023-09-30T07:12:58;99182.59;;;19.67;60.26
550;BME280;20066;48.764;9.176;2023-09-30T07:15:27;99185.53;;;19.56;60.48
550;BME280;20066;48.764;9.176;2023-09-30T07:17:55;99191.97;;;20.05;59.74
550;BME280;20066;48.764;9.176;2023-09-30T07:20:24;99191.81;;;20.12;58.37
550;BME280;20066;48.764;9.176;2023-09-30T07:22:52;99198.56;;;20.08;58.85
550;BME280;20066;48.764;9.176;2023-09-30T07:25:41;99197.31;;;20.48;57.42
550;BME280;20066;48.764;9.176;2023-09-30T07:28:09;99203.25;;;20.79;56.56
550;BME280;20066;48.764;9.176;2023-09-30T07:30:40;99214.00;;;20.86;56.75
550;BME280;20066;48.764;9.176;2023-09-30T07:33:09;99217.41;;;20.02;58.28
550;BME280;20066;48.764;9.176;2023-09-30T07:35:38;99221.59;;;19.44;60.22
550;BME280;20066;48.764;9.176;2023-09-30T07:38:06;99227.69;;;20.14;58.17
550;BME280;20066;48.764;9.176;2023-09-30T07:40:35;99216.09;;;20.26;58.04
550;BME280;20066;48.764;9.176;2023-09-30T07:43:03;99208.38;;;20.41;57.60
550;BME280;20066;48.764;9.176;2023-09-30T07:45:32;99211.13;;;19.62;60.12
550;BME280;20066;48.764;9.176;2023-09-30T07:48:01;99214.47;;;19.50;60.27
550;BME280;20066;48.764;9.176;2023-09-30T07:50:32;99217.94;;;20.33;58.66
550;BME280;20066;48.764;9.176;2023-09-30T07:53:01;99221.03;;;19.76;59.46
550;BME280;20066;48.764;9.176;2023-09-30T07:55:30;99230.63;;;20.23;58.91
550;BME280;20066;48.764;9.176;2023-09-30T07:57:58;99226.53;;;20.31;57.93
550;BME280;20066;48.764;9.176;2023-09-30T08:00:28;99238.84;;;20.75;57.46
550;BME280;20066;48.764;9.176;2023-09-30T08:02:56;99243.41;;;20.46;57.28
550;BME280;20066;48.764;9.176;2023-09-30T08:05:29;99234.09;;;20.80;56.80
550;BME280;20066;48.764;9.176;2023-09-30T08:07:57;99238.97;;;20.16;58.82
550;BME280;20066;48.764;9.176;2023-09-30T08:10:25;99229.13;;;21.39;55.07
550;BME280;20066;48.764;9.176;2023-09-30T08:12:53;99224.16;;;21.79;54.31
550;BME280;20066;48.764;9.176;2023-09-30T08:15:24;99222.63;;;21.49;54.06
550;BME280;20066;48.764;9.176;2023-09-30T08:17:53;99216.91;;;21.73;54.84
550;BME280;20066;48.764;9.176;2023-09-30T08:20:21;99217.88;;;22.08;52.67
550;BME280;20066;48.764;9.176;2023-09-30T08:22:50;99222.53;;;22.23;52.66
550;BME280;20066;48.764;9.176;2023-09-30T08:25:19;99218.66;;;22.21;51.82
550;BME280;20066;48.764;9.176;2023-09-30T08:27:46;99223.84;;;21.61;54.15
550;BME280;20066;48.764;9.176;2023-09-30T08:30:16;99219.22;;;21.29;53.74
550;BME280;20066;48.764;9.176;2023-09-30T08:32:45;99218.16;;;22.26;52.09
550;BME280;20066;48.764;9.176;2023-09-30T08:35:13;99217.34;;;23.27;49.95
550;BME280;20066;48.764;9.176;2023-09-30T08:37:42;99229.56;;;24.04;47.58
550;BME280;20066;48.764;9.176;2023-09-30T08:40:12;99230.66;;;22.90;49.88
550;BME280;20066;48.764;9.176;2023-09-30T08:42:41;99226.94;;;23.78;48.59
550;BME280;20066;48.764;9.176;2023-09-30T08:45:10;99219.66;;;24.37;47.79
550;BME280;20066;48.764;9.176;2023-09-30T08:47:41;99214.13;;;24.28;46.23
550;BME280;20066;48.764;9.176;2023-09-30T08:50:10;99217.66;;;26.60;41.58
550;BME280;20066;48.764;9.176;2023-09-30T08:52:41;99220.66;;;24.92;43.64
550;BME280;20066;48.764;9.176;2023-09-30T08:55:12;99229.97;;;24.86;44.36
550;BME280;20066;48.764;9.176;2023-09-30T08:57:41;99226.81;;;24.97;44.34
550;BME280;20066;48.764;9.176;2023-09-30T09:00:10;99225.66;;;24.76;45.65
550;BME280;20066;48.764;9.176;2023-09-30T09:02:39;99212.56;;;22.93;48.66
550;BME280;20066;48.764;9.176;2023-09-30T09:05:09;99208.59;;;22.94;48.41
550;BME280;20066;48.764;9.176;2023-09-30T09:07:38;99208.03;;;24.33;46.88
550;BME280;20066;48.764;9.176;2023-09-30T09:10:08;99219.00;;;24.95;44.37
550;BME280;20066;48.764;9.176;2023-09-30T09:12:39;99214.25;;;25.14;42.90
550;BME280;20066;48.764;9.176;2023-09-30T09:15:20;99223.47;;;25.20;42.55
550;BME280;20066;48.764;9.176;2023-09-30T09:17:49;99224.50;;;24.24;44.88
550;BME280;20066;48.764;9.176;2023-09-30T09:20:19;99231.25;;;23.67;46.58
550;BME280;20066;48.764;9.176;2023-09-30T09:22:49;99232.53;;;25.84;42.07
550;BME280;20066;48.764;9.176;2023-09-30T09:25:21;99234.09;;;27.44;39.81
550;BME280;20066;48.764;9.176;2023-09-30T09:27:52;99231.44;;;25.18;42.40
550;BME280;20066;48.764;9.176;2023-09-30T09:30:23;99225.72;;;23.58;46.82
550;BME280;20066;48.764;9.176;2023-09-30T09:32:58;99228.19;;;23.43;46.46
550;BME280;20066;48.764;9.176;2023-09-30T09:35:27;99231.53;;;24.03;46.14
550;BME280;20066;48.764;9.176;2023-09-30T09:37:58;99224.50;;;24.02;46.30
550;BME280;20066;48.764;9.176;2023-09-30T09:40:29;99209.78;;;23.74;45.84
550;BME280;20066;48.764;9.176;2023-09-30T09:43:01;99201.69;;;23.02;47.75
550;BME280;20066;48.764;9.176;2023-09-30T09:45:33;99204.72;;;23.17;47.94
550;BME280;20066;48.764;9.176;2023-09-30T09:48:03;99200.66;;;21.04;53.12
550;BME280;20066;48.764;9.176;2023-09-30T09:50:32;99200.56;;;21.82;52.18
550;BME280;20066;48.764;9.176;2023-09-30T09:53:04;99200.38;;;20.50;55.55
550;BME280;20066;48.764;9.176;2023-09-30T09:55:32;99199.63;;;21.14;53.78
550;BME280;20066;48.764;9.176;2023-09-30T09:58:03;99196.94;;;22.14;53.22
550;BME280;20066;48.764;9.176;2023-09-30T10:00:32;99200.00;;;23.17;48.93
550;BME280;20066;48.764;9.176;2023-09-30T10:03:02;99200.16;;;22.38;50.03
550;BME280;20066;48.764;9.176;2023-09-30T10:05:35;99208.38;;;23.92;47.90
550;BME280;20066;48.764;9.176;2023-09-30T10:08:13;99213.13;;;22.75;49.11
550;BME280;20066;48.764;9.176;2023-09-30T10:10:44;99203.88;;;22.69;48.25
550;BME280;20066;48.764;9.176;2023-09-30T10:16:51;99205.47;;;26.34;41.16
550;BME280;20066;48.764;9.176;2023-09-30T10:19:20;99186.91;;;25.74;40.77
550;BME280;20066;48.764;9.176;2023-09-30T10:22:21;99192.56;;;25.25;41.17
550;BME280;20066;48.764;9.176;2023-09-30T10:24:51;99185.38;;;24.20;43.26
550;BME280;20066;48.764;9.176;2023-09-30T10:27:32;99182.47;;;25.13;41.00
550;BME280;20066;48.764;9.176;2023-09-30T10:30:07;99181.28;;;26.29;39.46
550;BME280;20066;48.764;9.176;2023-09-30T10:33:08;99177.84;;;27.62;36.63
550;BME280;20066;48.764;9.176;2023-09-30T10:35:47;99181.34;;;25.92;39.31
550;BME280;20066;48.764;9.176;2023-09-30T10:38:37;99181.56;;;27.59;36.75
550;BME280;20066;48.764;9.176;2023-09-30T10:41:07;99184.06;;;30.87;31.95
550;BME280;20066;48.764;9.176;2023-09-30T10:43:37;99184.81;;;30.13;31.54
550;BME280;20066;48.764;9.176;2023-09-30T10:46:29;99179.88;;;29.05;34.27
550;BME280;20066;48.764;9.176;2023-09-30T10:49:15;99175.53;;;27.99;36.20
550;BME280;20066;48.764;9.176;2023-09-30T10:51:44;99174.66;;;28.22;34.70
550;BME280;20066;48.764;9.176;2023-09-30T10:54:13;99169.63;;;28.41;35.02
550;BME280;20066;48.764;9.176;2023-09-30T10:56:41;99175.16;;;29.11;32.58
550;BME280;20066;48.764;9.176;2023-09-30T10:59:09;99165.66;;;28.77;33.79
550;BME280;20066;48.764;9.176;2023-09-30T11:01:37;99154.97;;;26.00;38.14
550;BME280;20066;48.764;9.176;2023-09-30T11:04:07;99158.41;;;24.95;40.01
550;BME280;20066;48.764;9.176;2023-09-30T11:06:40;99154.63;;;25.20;38.67
550;BME280;20066;48.764;9.176;2023-09-30T11:09:08;99162.34;;;25.94;37.96
550;BME280;20066;48.764;9.176;2023-09-30T11:11:41;99148.22;;;23.94;42.00
550;BME280;20066;48.764;9.176;2023-09-30T11:14:17;99141.03;;;24.58;40.78
550;BME280;20066;48.764;9.176;2023-09-30T11:16:46;99137.59;;;24.94;40.55
550;BME280;20066;48.764;9.176;2023-09-30T11:19:16;99135.78;;;25.37;40.33
550;BME280;20066;48.764;9.176;2023-09-30T11:21:48;99130.44;;;25.42;40.83
550;BME280;20066;48.764;9.176;2023-09-30T11:24:16;99139.53;;;26.69;36.98
550;BME280;20066;48.764;9.176;2023-09-30T11:26:45;99142.72;;;24.65;40.41
550;BME280;20066;48.764;9.176;2023-09-30T11:29:14;99126.91;;;25.60;39.02
550;BME280;20066;48.764;9.176;2023-09-30T11:31:44;99136.41;;;26.19;37.83
550;BME280;20066;48.764;9.176;2023-09-30T11:34:16;99135.63;;;25.31;39.23
550;BME280;20066;48.764;9.176;2023-09-30T11:36:48;99128.38;;;23.90;41.73
550;BME280;20066;48.764;9.176;2023-09-30T11:39:21;99136.06;;;24.93;40.06
550;BME280;20066;48.764;9.176;2023-09-30T11:41:50;99136.22;;;25.08;39.96
550;BME280;20066;48.764;9.176;2023-09-30T11:44:19;99130.56;;;23.73;42.73
550;BME280;20066;48.764;9.176;2023-09-30T11:46:47;99135.31;;;24.34;41.76
550;BME280;20066;48.764;9.176;2023-09-30T11:49:40;99133.88;;;23.68;41.81
550;BME280;20066;48.764;9.176;2023-09-30T11:52:14;99127.59;;;23.89;38.47
550;BME280;20066;48.764;9.176;2023-09-30T11:54:45;99122.06;;;24.51;38.07
550;BME280;20066;48.764;9.176;2023-09-30T11:57:15;99124.31;;;24.03;38.60
550;BME280;20066;48.764;9.176;2023-09-30T11:59:44;99123.75;;;24.58;39.41
550;BME280;20066;48.764;9.176;2023-09-30T12:02:13;99128.13;;;24.86;36.36
550;BME280;20066;48.764;9.176;2023-09-30T12:04:44;99129.66;;;25.14;37.09
550;BME280;20066;48.764;9.176;2023-09-30T12:07:14;99126.88;;;25.69;36.69
550;BME280;20066;48.764;9.176;2023-09-30T12:09:42;99122.63;;;25.41;37.58
550;BME280;20066;48.764;9.176;2023-09-30T12:12:10;99135.03;;;26.15;37.00
550;BME280;20066;48.764;9.176;2023-09-30T12:14:40;99130.38;;;26.30;36.46
550;BME280;20066;48.764;9.176;2023-09-30T12:17:08;99129.97;;;25.25;38.21
550;BME280;20066;48.764;9.176;2023-09-30T12:19:39;99128.91;;;25.41;37.79
550;BME280;20066;48.764;9.176;2023-09-30T12:22:10;99130.41;;;25.15;38.67
550;BME280;20066;48.764;9.176;2023-09-30T12:24:38;99132.16;;;24.63;39.00
550;BME280;20066;48.764;9.176;2023-09-30T12:27:07;99139.69;;;24.23;39.57
550;BME280;20066;48.764;9.176;2023-09-30T12:29:35;99137.34;;;24.61;38.77
550;BME280;20066;48.764;9.176;2023-09-30T12:32:05;99128.75;;;25.26;36.16
550;BME280;20066;48.764;9.176;2023-09-30T12:34:33;99133.44;;;24.31;38.23
550;BME280;20066;48.764;9.176;2023-09-30T12:37:02;99130.13;;;25.31;35.07
550;BME280;20066;48.764;9.176;2023-09-30T12:39:32;99137.63;;;24.45;35.93
550;BME280;20066;48.764;9.176;2023-09-30T12:42:01;99121.72;;;23.34;38.39
550;BME280;20066;48.764;9.176;2023-09-30T12:44:37;99122.06;;;24.60;36.83
550;BME280;20066;48.764;9.176;2023-09-30T12:47:05;99122.00;;;25.55;35.15
550;BME280;20066;48.764;9.176;2023-09-30T12:49:33;99114.97;;;25.26;36.69
550;BME280;20066;48.764;9.176;2023-09-30T12:52:01;99121.16;;;24.63;38.89
550;BME280;20066;48.764;9.176;2023-09-30T12:54:29;99110.09;;;25.03;38.88
550;BME280;20066;48.764;9.176;2023-09-30T12:56:58;99122.16;;;25.33;38.17
550;BME280;20066;48.764;9.176;2023-09-30T12:59:26;99119.78;;;25.86;37.56
550;BME280;20066;48.764;9.176;2023-09-30T13:01:54;99114.94;;;25.72;36.81
550;BME280;20066;48.764;9.176;2023-09-30T13:04:23;99110.63;;;25.71;36.16
550;BME280;20066;48.764;9.176;2023-09-30T13:06:52;99112.91;;;28.02;32.64
550;BME280;20066;48.764;9.176;2023-09-30T13:09:20;99115.75;;;28.57;32.63
550;BME280;20066;48.764;9.176;2023-09-30T13:11:49;99118.59;;;28.27;31.96
550;BME280;20066;48.764;9.176;2023-09-30T13:14:18;99109.16;;;26.93;34.23
550;BME280;20066;48.764;9.176;2023-09-30T13:16:46;99100.66;;;26.25;34.67
550;BME280;20066;48.764;9.176;2023-09-30T13:19:13;99101.03;;;26.08;34.99
550;BME280;20066;48.764;9.176;2023-09-30T13:21:42;99093.19;;;26.16;34.38
550;BME280;20066;48.764;9.176;2023-09-30T13:24:10;99085.78;;;26.22;34.67
550;BME280;20066;48.764;9.176;2023-09-30T13:26:38;99076.88;;;25.85;36.10
550;BME280;20066;48.764;9.176;2023-09-30T13:29:07;99075.00;;;26.00;35.46
550;BME280;20066;48.764;9.176;2023-09-30T13:31:37;99072.59;;;25.84;35.58
550;BME280;20066;48.764;9.176;2023-09-30T13:34:05;99075.31;;;25.33;36.10
550;BME280;20066;48.764;9.176;2023-09-30T13:36:33;99072.50;;;26.21;35.21
550;BME280;20066;48.764;9.176;2023-09-30T13:39:01;99070.09;;;26.85;33.06
550;BME280;20066;48.764;9.176;2023-09-30T13:41:34;99075.00;;;25.22;35.83